createdAt,value
2022-10-22T00:00:20.609Z,65.50
2022-10-22T00:03:13.894Z,65.60
2022-10-22T00:06:07.487Z,65.70
2022-10-22T00:09:01.135Z,65.90
2022-10-22T00:11:54.313Z,65.80
2022-10-22T00:14:48.835Z,65.70
2022-10-22T00:17:43.459Z,66.00
2022-10-22T00:20:37.125Z,66.40
2022-10-22T00:23:31.085Z,66.40
2022-10-22T00:26:24.497Z,67.20
2022-10-22T00:29:19.877Z,67.40
2022-10-22T00:32:13.246Z,67.80
2022-10-22T00:35:08.550Z,67.00
2022-10-22T00:38:01.665Z,66.80
2022-10-22T00:40:55.279Z,66.50
2022-10-22T00:43:59.986Z,66.50
2022-10-22T00:46:53.178Z,66.40
2022-10-22T00:49:46.648Z,66.60
2022-10-22T00:52:41.949Z,66.30
2022-10-22T00:55:35.481Z,66.40
2022-10-22T00:58:32.263Z,66.60
2022-10-22T01:01:28.252Z,66.20
2022-10-22T01:04:21.756Z,66.30
2022-10-22T01:07:18.990Z,66.30
2022-10-22T01:10:25.817Z,66.40
2022-10-22T01:13:30.575Z,66.30
2022-10-22T01:16:32.014Z,67.30
2022-10-22T01:19:46.896Z,68.00
2022-10-22T01:22:44.156Z,67.30
2022-10-22T01:25:48.625Z,68.10
2022-10-22T01:28:59.578Z,67.30
2022-10-22T01:31:59.350Z,66.90
2022-10-22T01:34:57.460Z,67.10
2022-10-22T01:37:53.148Z,67.30
2022-10-22T01:40:47.295Z,67.30
2022-10-22T01:43:41.128Z,67.00
2022-10-22T01:46:35.828Z,67.40
2022-10-22T01:49:38.608Z,67.20
2022-10-22T01:52:46.079Z,67.40
2022-10-22T01:55:48.008Z,67.00
2022-10-22T01:58:46.069Z,66.90
2022-10-22T02:01:49.937Z,66.90
2022-10-22T02:04:49.908Z,66.70
2022-10-22T02:07:45.796Z,66.50
2022-10-22T02:10:41.192Z,66.40
2022-10-22T02:13:39.477Z,66.70
2022-10-22T02:16:36.744Z,66.50
2022-10-22T02:19:39.231Z,66.40
2022-10-22T02:22:32.225Z,66.10
2022-10-22T02:25:29.200Z,66.10
2022-10-22T02:28:26.366Z,65.90
2022-10-22T02:31:23.672Z,65.80
2022-10-22T02:34:23.224Z,65.90
2022-10-22T02:37:19.288Z,66.00
2022-10-22T02:40:12.616Z,65.80
2022-10-22T02:43:06.959Z,65.60
2022-10-22T02:46:00.070Z,65.50
2022-10-22T02:48:53.183Z,65.60
2022-10-22T02:51:46.046Z,65.60
2022-10-22T02:54:40.244Z,65.90
2022-10-22T02:57:32.970Z,65.60
2022-10-22T03:00:25.869Z,65.70
2022-10-22T03:03:19.420Z,65.90
2022-10-22T03:06:13.531Z,66.00
2022-10-22T03:09:07.147Z,66.10
2022-10-22T03:12:01.374Z,66.10
2022-10-22T03:14:54.143Z,66.20
2022-10-22T03:17:47.008Z,66.00
2022-10-22T03:20:39.760Z,65.90
2022-10-22T03:23:33.672Z,66.10
2022-10-22T03:26:27.384Z,66.50
2022-10-22T03:29:22.991Z,66.50
2022-10-22T03:32:16.020Z,66.60
2022-10-22T03:35:09.752Z,67.00
2022-10-22T03:38:03.412Z,66.70
2022-10-22T03:40:56.229Z,67.20
2022-10-22T03:43:52.930Z,67.00
2022-10-22T03:46:47.551Z,67.00
2022-10-22T03:49:41.284Z,67.20
2022-10-22T03:52:37.927Z,67.20
2022-10-22T03:55:31.206Z,67.30
2022-10-22T03:58:24.032Z,67.30
2022-10-22T04:01:17.162Z,67.40
2022-10-22T04:04:11.340Z,67.50
2022-10-22T04:07:04.006Z,67.40
2022-10-22T04:09:56.916Z,67.40
2022-10-22T04:12:50.406Z,67.50
2022-10-22T04:15:43.276Z,67.60
2022-10-22T04:18:36.092Z,67.40
2022-10-22T04:21:30.367Z,67.30
2022-10-22T04:24:22.803Z,67.60
2022-10-22T04:27:15.750Z,67.60
2022-10-22T04:30:10.015Z,67.20
2022-10-22T04:33:03.364Z,67.20
2022-10-22T04:35:57.551Z,67.30
2022-10-22T04:38:56.223Z,66.70
2022-10-22T04:41:49.267Z,66.70
2022-10-22T04:44:42.093Z,66.50
2022-10-22T04:47:34.991Z,66.60
2022-10-22T04:50:28.417Z,66.50
2022-10-22T04:53:21.456Z,66.80
2022-10-22T04:56:19.765Z,66.90
2022-10-22T04:59:13.633Z,66.60
2022-10-22T05:02:07.271Z,66.50
2022-10-22T05:05:00.496Z,66.90
2022-10-22T05:07:54.070Z,66.80
2022-10-22T05:10:47.050Z,66.50
2022-10-22T05:13:41.692Z,66.40
2022-10-22T05:16:35.908Z,66.30
2022-10-22T05:19:31.154Z,66.30
2022-10-22T05:22:24.315Z,66.30
2022-10-22T05:25:17.099Z,66.30
2022-10-22T05:28:10.215Z,66.20
2022-10-22T05:31:05.038Z,66.40
2022-10-22T05:33:58.601Z,66.20
2022-10-22T05:36:52.304Z,66.30
2022-10-22T05:39:45.089Z,66.40
2022-10-22T05:42:38.525Z,66.40
2022-10-22T05:45:32.113Z,66.80
2022-10-22T05:48:26.561Z,66.60
2022-10-22T05:51:20.854Z,66.40
2022-10-22T05:54:18.531Z,66.40
2022-10-22T05:57:12.131Z,66.30
2022-10-22T06:00:05.527Z,66.40
2022-10-22T06:02:59.467Z,66.60
2022-10-22T06:05:53.617Z,67.00
2022-10-22T06:08:48.457Z,66.70
2022-10-22T06:11:40.904Z,66.50
2022-10-22T06:14:33.795Z,66.50
2022-10-22T06:17:27.124Z,66.70
2022-10-22T06:20:20.063Z,66.90
2022-10-22T06:23:14.532Z,66.40
2022-10-22T06:26:08.503Z,66.60
2022-10-22T06:29:01.759Z,66.60
2022-10-22T06:31:55.080Z,66.30
2022-10-22T06:34:50.384Z,66.20
2022-10-22T06:37:43.381Z,66.20
2022-10-22T06:40:37.375Z,66.30
2022-10-22T06:43:31.251Z,66.10
2022-10-22T06:46:25.336Z,66.20
2022-10-22T06:49:18.758Z,66.20
2022-10-22T06:52:12.371Z,66.10
2022-10-22T06:55:06.127Z,66.10
2022-10-22T06:58:00.314Z,66.10
2022-10-22T07:01:02.157Z,66.10
2022-10-22T07:03:55.421Z,66.90
2022-10-22T07:06:48.412Z,66.10
2022-10-22T07:09:41.312Z,66.10
2022-10-22T07:12:35.190Z,66.00
2022-10-22T07:15:29.464Z,66.10
2022-10-22T07:18:22.017Z,66.00
2022-10-22T07:21:16.835Z,66.00
2022-10-22T07:24:10.042Z,66.00
2022-10-22T07:27:04.347Z,66.00
2022-10-22T07:30:01.308Z,65.90
2022-10-22T07:32:55.386Z,65.90
2022-10-22T07:35:48.542Z,65.90
2022-10-22T07:38:41.296Z,65.90
2022-10-22T07:41:34.163Z,66.30
2022-10-22T07:44:27.448Z,66.10
2022-10-22T07:47:20.312Z,66.70
2022-10-22T07:50:14.727Z,66.50
2022-10-22T07:53:08.520Z,66.90
2022-10-22T07:56:02.560Z,67.20
2022-10-22T07:58:55.472Z,67.20
2022-10-22T08:01:48.275Z,67.10
2022-10-22T08:04:41.395Z,67.30
2022-10-22T08:07:35.758Z,67.40
2022-10-22T08:10:29.744Z,67.50
2022-10-22T08:13:23.884Z,68.70
2022-10-22T08:16:17.639Z,69.40
2022-10-22T08:19:11.391Z,69.00
2022-10-22T08:22:04.754Z,68.90
2022-10-22T08:25:00.303Z,69.10
2022-10-22T08:27:52.906Z,69.30
2022-10-22T08:30:48.074Z,69.40
2022-10-22T08:33:41.979Z,69.40
2022-10-22T08:36:35.723Z,69.10
2022-10-22T08:39:29.990Z,69.40
2022-10-22T08:43:00.284Z,69.20
2022-10-22T08:46:02.113Z,68.80
2022-10-22T08:48:58.403Z,68.40
2022-10-22T08:51:51.979Z,69.20
2022-10-22T08:54:52.509Z,68.40
2022-10-22T08:57:55.769Z,68.40
2022-10-22T09:00:55.918Z,68.30
2022-10-22T09:03:53.375Z,68.10
2022-10-22T09:06:49.535Z,68.10
2022-10-22T09:09:51.766Z,68.10
2022-10-22T09:12:45.549Z,68.20
2022-10-22T09:15:42.607Z,67.90
2022-10-22T09:18:45.992Z,67.20
2022-10-22T09:21:47.064Z,67.20
2022-10-22T09:24:43.026Z,67.30
2022-10-22T09:27:36.429Z,67.40
2022-10-22T09:30:31.304Z,67.30
2022-10-22T09:33:30.727Z,67.40
2022-10-22T09:36:24.487Z,67.10
2022-10-22T09:39:26.117Z,67.10
2022-10-22T09:42:21.875Z,67.10
2022-10-22T09:45:21.005Z,66.90
2022-10-22T09:48:22.004Z,66.70
2022-10-22T09:51:21.367Z,66.60
2022-10-22T09:54:19.917Z,66.40
2022-10-22T09:57:17.642Z,66.10
2022-10-22T10:00:12.029Z,66.40
2022-10-22T10:03:05.387Z,67.10
2022-10-22T10:06:04.733Z,67.00
2022-10-22T10:09:03.299Z,67.60
2022-10-22T10:12:04.631Z,66.50
2022-10-22T10:15:04.602Z,66.90
2022-10-22T10:18:06.516Z,66.70
2022-10-22T10:21:08.099Z,67.00
2022-10-22T10:24:11.102Z,66.20
2022-10-22T10:27:12.606Z,65.70
2022-10-22T10:30:14.102Z,65.40
2022-10-22T10:33:23.276Z,65.00
2022-10-22T10:36:26.144Z,65.30
2022-10-22T10:39:26.312Z,65.00
2022-10-22T10:42:28.046Z,64.90
2022-10-22T10:45:30.004Z,64.90
2022-10-22T10:48:46.301Z,64.60
2022-10-22T10:51:47.223Z,64.20
2022-10-22T10:54:49.860Z,64.20
2022-10-22T10:57:53.357Z,63.80
2022-10-22T11:00:56.334Z,63.80
2022-10-22T11:04:44.766Z,64.00
2022-10-22T11:07:41.628Z,64.00
2022-10-22T11:10:40.807Z,64.00
2022-10-22T11:13:39.464Z,64.00
2022-10-22T11:16:37.807Z,63.90
2022-10-22T11:19:51.058Z,63.90
2022-10-22T11:23:16.955Z,64.00
2022-10-22T11:26:07.878Z,64.10
2022-10-22T11:29:02.725Z,64.20
2022-10-22T11:31:57.937Z,64.20
2022-10-22T11:34:55.296Z,63.60
2022-10-22T11:37:49.266Z,63.70
2022-10-22T11:40:48.597Z,63.40
2022-10-22T11:44:05.864Z,63.70
2022-10-22T11:47:09.184Z,63.70
2022-10-22T11:50:21.531Z,63.80
2022-10-22T11:53:21.851Z,63.70
2022-10-22T11:56:26.499Z,63.70
2022-10-22T11:59:40.408Z,64.20
2022-10-22T12:02:44.974Z,64.00
2022-10-22T12:05:40.509Z,63.70
2022-10-22T12:08:34.786Z,63.60
2022-10-22T12:11:36.365Z,63.60
2022-10-22T12:14:41.555Z,63.50
2022-10-22T12:17:34.823Z,64.30
2022-10-22T12:20:30.016Z,63.30
2022-10-22T12:23:32.525Z,63.30
2022-10-22T12:26:27.543Z,63.20
2022-10-22T12:29:23.809Z,63.10
2022-10-22T12:32:18.154Z,62.70
2022-10-22T12:35:18.017Z,62.50
2022-10-22T12:38:15.591Z,62.70
2022-10-22T12:41:10.983Z,62.80
2022-10-22T12:44:06.483Z,62.90
2022-10-22T12:46:59.574Z,62.70
2022-10-22T12:49:53.640Z,62.80
2022-10-22T12:52:47.291Z,62.80
2022-10-22T12:55:41.202Z,62.90
2022-10-22T12:58:39.932Z,62.80
2022-10-22T13:01:37.133Z,62.60
2022-10-22T13:04:36.267Z,62.70
2022-10-22T13:07:40.164Z,62.80
2022-10-22T13:10:35.218Z,63.00
2022-10-22T13:13:41.761Z,63.10
2022-10-22T13:19:42.274Z,63.00
2022-10-22T13:22:38.411Z,63.30
2022-10-22T13:25:33.012Z,63.80
2022-10-22T13:28:27.835Z,63.90
2022-10-22T13:31:28.062Z,64.10
2022-10-22T13:34:23.661Z,64.40
2022-10-22T13:37:16.576Z,64.40
2022-10-22T13:40:14.803Z,64.40
2022-10-22T13:43:07.188Z,64.50
2022-10-22T13:46:01.571Z,64.70
2022-10-22T13:48:56.263Z,64.60
2022-10-22T13:51:50.729Z,64.40
2022-10-22T13:54:43.432Z,64.30
2022-10-22T13:57:37.822Z,64.30
2022-10-22T14:00:30.901Z,64.10
2022-10-22T14:03:27.222Z,64.10
2022-10-22T14:06:21.809Z,64.10
2022-10-22T14:09:16.769Z,64.10
2022-10-22T14:12:14.124Z,64.10
2022-10-22T14:15:11.319Z,64.10
2022-10-22T14:18:06.736Z,64.00
2022-10-22T14:21:04.793Z,64.10
2022-10-22T14:23:57.479Z,64.10
2022-10-22T14:26:50.636Z,64.10
2022-10-22T14:29:43.472Z,64.00
2022-10-22T14:32:38.598Z,64.00
2022-10-22T14:35:33.615Z,64.70
2022-10-22T14:38:27.293Z,63.80
2022-10-22T14:41:45.536Z,63.70
2022-10-22T14:44:42.768Z,63.60
2022-10-22T14:47:35.522Z,63.60
2022-10-22T14:50:39.867Z,63.50
2022-10-22T14:53:41.043Z,63.60
2022-10-22T14:56:59.498Z,63.50
2022-10-22T14:59:54.746Z,63.50
2022-10-22T15:02:48.369Z,63.50
2022-10-22T15:05:44.334Z,63.60
2022-10-22T15:08:38.110Z,63.40
2022-10-22T15:11:33.843Z,63.50
2022-10-22T15:14:29.430Z,63.60
2022-10-22T15:17:22.967Z,63.60
2022-10-22T15:20:17.096Z,63.60
2022-10-22T15:23:11.806Z,63.60
2022-10-22T15:26:04.644Z,63.60
2022-10-22T15:28:57.617Z,63.60
2022-10-22T15:31:52.354Z,63.60
2022-10-22T15:34:45.275Z,63.60
2022-10-22T15:37:38.731Z,63.70
2022-10-22T15:40:33.131Z,63.70
2022-10-22T15:43:26.901Z,63.80
2022-10-22T15:46:21.701Z,63.80
2022-10-22T15:49:14.978Z,63.80
2022-10-22T15:52:08.810Z,63.80
2022-10-22T15:55:04.097Z,63.80
2022-10-22T15:58:01.819Z,63.80
2022-10-22T16:00:56.512Z,63.90
2022-10-22T16:03:59.642Z,64.00
2022-10-22T16:06:54.051Z,64.00
2022-10-22T16:09:48.241Z,64.00
2022-10-22T16:12:42.885Z,64.00
2022-10-22T16:15:37.780Z,64.00
2022-10-22T16:18:30.929Z,64.00
2022-10-22T16:21:25.593Z,64.00
2022-10-22T16:24:18.689Z,64.10
2022-10-22T16:27:11.720Z,64.10
2022-10-22T16:30:05.138Z,64.10
2022-10-22T16:33:02.481Z,64.20
2022-10-22T16:35:56.828Z,64.20
2022-10-22T16:38:50.219Z,64.20
2022-10-22T16:41:44.085Z,64.30
2022-10-22T16:44:37.779Z,64.20
2022-10-22T16:47:32.569Z,64.20
2022-10-22T16:50:26.873Z,64.20
2022-10-22T16:53:20.215Z,64.10
2022-10-22T16:56:16.033Z,64.20
2022-10-22T16:59:09.038Z,64.20
2022-10-22T17:02:01.789Z,64.10
2022-10-22T17:04:54.747Z,64.00
2022-10-22T17:07:49.743Z,64.00
2022-10-22T17:10:42.946Z,64.00
2022-10-22T17:13:36.316Z,63.90
2022-10-22T17:16:31.240Z,64.00
2022-10-22T17:19:25.164Z,63.90
2022-10-22T17:22:18.608Z,63.90
2022-10-22T17:25:15.663Z,63.90
2022-10-22T17:28:08.702Z,63.90
2022-10-22T17:31:06.317Z,63.80
2022-10-22T17:34:00.781Z,63.90
2022-10-22T17:36:53.422Z,63.80
2022-10-22T17:39:47.188Z,63.80
2022-10-22T17:42:42.207Z,63.80
2022-10-22T17:45:36.438Z,63.80
2022-10-22T17:48:29.608Z,63.80
2022-10-22T17:51:24.204Z,63.80
2022-10-22T17:54:17.568Z,63.90
2022-10-22T17:57:13.324Z,63.80
2022-10-22T18:00:09.835Z,63.80
2022-10-22T18:03:02.584Z,63.80
2022-10-22T18:05:55.741Z,63.80
2022-10-22T18:08:49.311Z,63.80
2022-10-22T18:11:43.036Z,63.70
2022-10-22T18:14:36.224Z,63.80
2022-10-22T18:17:32.669Z,63.70
2022-10-22T18:20:27.783Z,63.70
2022-10-22T18:23:21.022Z,63.70
2022-10-22T18:26:13.784Z,63.80
2022-10-22T18:29:06.606Z,63.80
2022-10-22T18:31:59.993Z,63.70
2022-10-22T18:34:54.248Z,63.60
2022-10-22T18:37:47.853Z,63.60
2022-10-22T18:40:46.823Z,63.50
2022-10-22T18:43:40.124Z,63.40
2022-10-22T18:46:38.171Z,63.30
2022-10-22T18:49:31.862Z,63.30
2022-10-22T18:52:26.230Z,63.30
2022-10-22T18:55:20.314Z,63.20
2022-10-22T18:58:13.719Z,63.30
2022-10-22T19:01:10.194Z,63.30
2022-10-22T19:04:03.789Z,63.20
2022-10-22T19:06:58.449Z,63.20
2022-10-22T19:09:52.933Z,63.20
2022-10-22T19:12:46.268Z,63.20
2022-10-22T19:15:41.492Z,63.20
2022-10-22T19:18:36.926Z,63.10
2022-10-22T19:21:29.759Z,63.20
2022-10-22T19:24:23.149Z,63.10
2022-10-22T19:27:17.061Z,63.10
2022-10-22T19:30:11.203Z,63.10
2022-10-22T19:33:04.712Z,63.10
2022-10-22T19:35:58.086Z,63.20
2022-10-22T19:38:51.308Z,63.10
2022-10-22T19:41:45.636Z,63.10
2022-10-22T19:44:40.242Z,63.00
2022-10-22T19:47:34.312Z,63.00
2022-10-22T19:50:27.794Z,63.00
2022-10-22T19:53:21.624Z,62.90
2022-10-22T19:56:18.732Z,63.00
2022-10-22T19:59:13.109Z,63.10
2022-10-22T20:02:07.209Z,63.00
2022-10-22T20:05:00.711Z,63.70
2022-10-22T20:07:53.924Z,62.90
2022-10-22T20:10:49.743Z,62.90
2022-10-22T20:13:44.489Z,62.90
2022-10-22T20:16:40.408Z,62.90
2022-10-22T20:19:35.347Z,62.80
2022-10-22T20:22:28.680Z,62.80
2022-10-22T20:25:21.964Z,62.90
2022-10-22T20:28:16.593Z,62.90
2022-10-22T20:31:11.474Z,62.90
2022-10-22T20:34:05.453Z,62.80
2022-10-22T20:37:00.079Z,62.80
2022-10-22T20:39:53.572Z,62.80
2022-10-22T20:42:47.225Z,62.80
2022-10-22T20:45:40.379Z,62.80
2022-10-22T20:48:34.438Z,62.80
2022-10-22T20:51:28.928Z,62.80
2022-10-22T20:54:23.293Z,62.80
2022-10-22T20:57:17.341Z,62.70
2022-10-22T21:00:12.311Z,62.80
2022-10-22T21:03:06.863Z,62.70
2022-10-22T21:05:59.597Z,62.80
2022-10-22T21:08:53.812Z,62.80
2022-10-22T21:11:48.341Z,62.80
2022-10-22T21:14:41.946Z,62.80
2022-10-22T21:17:35.130Z,62.80
2022-10-22T21:20:27.529Z,62.80
2022-10-22T21:23:20.697Z,62.80
2022-10-22T21:26:14.180Z,62.80
2022-10-22T21:29:08.140Z,62.80
2022-10-22T21:32:01.104Z,62.80
2022-10-22T21:34:53.936Z,62.80
2022-10-22T21:37:46.977Z,62.80
2022-10-22T21:40:39.999Z,62.70
2022-10-22T21:43:33.044Z,62.80
2022-10-22T21:46:28.982Z,62.70
2022-10-22T21:49:22.141Z,62.80
2022-10-22T21:52:14.717Z,62.80
2022-10-22T21:55:08.579Z,62.80
2022-10-22T21:58:01.957Z,62.80
2022-10-22T22:00:57.785Z,62.70
2022-10-22T22:03:52.638Z,62.80
2022-10-22T22:06:46.203Z,62.70
2022-10-22T22:09:39.184Z,62.70
2022-10-22T22:12:32.078Z,62.60
2022-10-22T22:15:25.055Z,62.70
2022-10-22T22:18:17.981Z,62.70
2022-10-22T22:21:14.351Z,62.70
2022-10-22T22:24:09.972Z,62.60
2022-10-22T22:27:02.764Z,62.60
2022-10-22T22:29:56.184Z,62.60
2022-10-22T22:32:49.150Z,62.50
2022-10-22T22:35:41.795Z,62.50
2022-10-22T22:38:36.338Z,62.50
2022-10-22T22:41:29.951Z,62.50
2022-10-22T22:44:22.919Z,62.50
2022-10-22T22:47:15.868Z,62.50
2022-10-22T22:50:09.529Z,62.50
2022-10-22T22:53:02.889Z,62.50
2022-10-22T22:56:12.031Z,62.50
2022-10-22T22:59:05.693Z,62.50
2022-10-22T23:01:59.090Z,62.50
2022-10-22T23:04:51.690Z,62.40
2022-10-22T23:07:44.732Z,62.40
2022-10-22T23:10:37.811Z,62.40
2022-10-22T23:13:32.419Z,62.30
2022-10-22T23:16:29.785Z,63.10
2022-10-22T23:19:24.421Z,62.30
2022-10-22T23:22:18.109Z,62.30
2022-10-22T23:25:11.226Z,62.30
2022-10-22T23:28:04.204Z,62.20
2022-10-22T23:30:58.420Z,62.20
2022-10-22T23:33:52.090Z,62.10
2022-10-22T23:36:45.326Z,62.20
2022-10-22T23:39:38.041Z,62.10
2022-10-22T23:42:30.998Z,62.10
2022-10-22T23:45:24.073Z,62.10
2022-10-22T23:48:18.748Z,62.10
2022-10-22T23:51:14.006Z,62.10
2022-10-22T23:54:09.123Z,62.10
2022-10-22T23:57:02.151Z,62.00
2022-10-22T23:59:55.728Z,62.00
